createdAt,value
2023-03-26T00:01:33.946Z,100002.47
2023-03-26T00:04:05.988Z,100000.03
2023-03-26T00:06:39.288Z,99973.84
2023-03-26T00:09:10.167Z,99985.72
2023-03-26T00:11:37.631Z,99978.47
2023-03-26T00:14:06.473Z,99982.47
2023-03-26T00:16:34.326Z,99965.53
2023-03-26T00:19:03.100Z,99990.09
2023-03-26T00:21:31.324Z,99982.03
2023-03-26T00:24:05.006Z,99967.88
2023-03-26T00:26:34.157Z,99981.56
2023-03-26T00:29:03.492Z,99956.34
2023-03-26T00:31:31.407Z,99966.91
2023-03-26T00:33:59.561Z,99951.59
2023-03-26T00:36:28.545Z,99950.75
2023-03-26T00:38:56.271Z,99964.06
2023-03-26T00:41:26.474Z,99965.41
2023-03-26T00:43:56.823Z,99972.00
2023-03-26T00:46:26.050Z,99944.31
2023-03-26T00:48:53.448Z,99919.81
2023-03-26T00:51:22.262Z,99955.84
2023-03-26T00:53:50.887Z,99907.28
2023-03-26T00:56:19.226Z,99941.81
2023-03-26T00:58:48.098Z,99928.66
2023-03-26T01:01:21.756Z,99938.03
2023-03-26T01:04:06.852Z,99893.91
2023-03-26T01:06:37.537Z,99944.63
2023-03-26T01:09:16.239Z,99940.16
2023-03-26T01:11:44.389Z,99936.38
2023-03-26T01:14:24.416Z,99924.88
2023-03-26T01:17:02.816Z,99918.47
2023-03-26T01:19:48.798Z,99942.47
2023-03-26T01:22:22.810Z,99919.59
2023-03-26T01:24:54.201Z,99943.00
2023-03-26T01:27:29.589Z,99916.31
2023-03-26T01:30:38.881Z,99932.78
2023-03-26T01:33:14.572Z,99902.84
2023-03-26T01:35:45.095Z,99927.50
2023-03-26T01:38:18.385Z,99928.66
2023-03-26T01:40:49.692Z,99935.91
2023-03-26T01:43:31.236Z,99933.59
2023-03-26T01:46:04.018Z,99923.06
2023-03-26T01:48:37.329Z,99927.84
2023-03-26T01:51:06.690Z,99928.53
2023-03-26T01:53:37.613Z,99905.63
2023-03-26T01:56:19.658Z,99930.19
2023-03-26T01:59:04.947Z,99916.81
2023-03-26T02:01:46.292Z,99916.13
2023-03-26T02:04:30.863Z,99923.72
2023-03-26T02:07:09.441Z,99894.44
2023-03-26T02:09:46.195Z,99921.25
2023-03-26T02:12:18.201Z,99881.25
2023-03-26T02:14:46.301Z,99911.22
2023-03-26T02:17:33.637Z,99901.16
2023-03-26T02:20:11.024Z,99887.38
2023-03-26T02:22:46.021Z,99883.75
2023-03-26T02:25:19.502Z,99890.63
2023-03-26T02:27:49.800Z,99888.81
2023-03-26T02:30:20.742Z,99902.81
2023-03-26T02:32:52.453Z,99906.91
2023-03-26T02:35:22.974Z,99894.06
2023-03-26T02:37:55.781Z,99913.47
2023-03-26T02:40:22.983Z,99907.59
2023-03-26T02:42:51.488Z,99902.47
2023-03-26T02:45:18.737Z,99879.91
2023-03-26T02:48:06.367Z,99885.03
2023-03-26T02:51:06.833Z,99905.09
2023-03-26T02:53:37.716Z,99896.56
2023-03-26T02:56:28.692Z,99909.22
2023-03-26T02:59:18.701Z,99892.59
2023-03-26T03:01:50.492Z,99890.94
2023-03-26T03:04:19.695Z,99882.91
2023-03-26T03:06:53.189Z,99892.09
2023-03-26T03:09:21.150Z,99892.59
2023-03-26T03:12:17.489Z,99882.53
2023-03-26T03:14:44.566Z,99866.59
2023-03-26T03:17:11.826Z,99887.31
2023-03-26T03:19:38.981Z,99844.88
2023-03-26T03:22:06.390Z,99863.63
2023-03-26T03:24:34.519Z,99876.41
2023-03-26T03:27:02.138Z,99874.13
2023-03-26T03:29:39.426Z,99859.50
2023-03-26T03:32:42.072Z,99874.94
2023-03-26T03:35:11.707Z,99864.19
2023-03-26T03:37:40.632Z,99870.03
2023-03-26T03:40:12.034Z,99875.25
2023-03-26T03:42:39.756Z,99873.44
2023-03-26T03:45:08.898Z,99851.09
2023-03-26T03:47:59.191Z,99831.34
2023-03-26T03:50:42.077Z,99850.13
2023-03-26T03:53:29.712Z,99852.72
2023-03-26T03:56:02.157Z,99862.44
2023-03-26T03:58:58.499Z,99829.66
2023-03-26T04:01:32.227Z,99852.66
2023-03-26T04:04:12.992Z,99847.88
2023-03-26T04:06:52.587Z,99858.25
2023-03-26T04:09:20.985Z,99849.69
2023-03-26T04:11:50.891Z,99868.66
2023-03-26T04:14:41.574Z,99846.81
2023-03-26T04:17:22.024Z,99863.91
2023-03-26T04:19:53.211Z,99854.63
2023-03-26T04:22:21.695Z,99846.06
2023-03-26T04:24:54.916Z,99859.41
2023-03-26T04:28:06.587Z,99864.00
2023-03-26T04:30:46.619Z,99851.22
2023-03-26T04:33:35.721Z,99863.13
2023-03-26T04:36:05.686Z,99825.44
2023-03-26T04:38:42.295Z,99830.03
2023-03-26T04:41:13.619Z,99852.72
2023-03-26T04:44:02.202Z,99829.09
2023-03-26T04:46:43.937Z,99831.06
2023-03-26T04:49:22.723Z,99822.84
2023-03-26T04:51:50.251Z,99825.81
2023-03-26T04:54:56.650Z,99819.63
2023-03-26T04:57:30.846Z,99831.47
2023-03-26T05:00:20.579Z,99805.50
2023-03-26T05:02:56.223Z,99823.16
2023-03-26T05:05:26.358Z,99814.31
2023-03-26T05:07:54.956Z,99824.22
2023-03-26T05:10:22.963Z,99831.22
2023-03-26T05:12:57.992Z,99833.22
2023-03-26T05:15:33.579Z,99818.06
2023-03-26T05:18:13.886Z,99823.00
2023-03-26T05:20:43.955Z,99806.56
2023-03-26T05:23:12.595Z,99822.81
2023-03-26T05:25:43.020Z,99818.56
2023-03-26T05:28:19.342Z,99832.16
2023-03-26T05:31:16.463Z,99829.34
2023-03-26T05:33:47.131Z,99839.41
2023-03-26T05:36:15.503Z,99795.97
2023-03-26T05:38:54.997Z,99844.28
2023-03-26T05:41:42.102Z,99808.63
2023-03-26T05:44:09.569Z,99806.09
2023-03-26T05:46:36.978Z,99799.06
2023-03-26T05:49:04.274Z,99800.72
2023-03-26T05:51:34.639Z,99821.56
2023-03-26T05:54:22.089Z,99813.69
2023-03-26T05:57:08.190Z,99806.50
2023-03-26T05:59:54.367Z,99827.31
2023-03-26T06:02:42.363Z,99834.97
2023-03-26T06:05:32.680Z,99803.09
2023-03-26T06:08:27.384Z,99805.19
2023-03-26T06:11:07.458Z,99817.28
2023-03-26T06:13:36.510Z,99819.50
2023-03-26T06:16:03.930Z,99828.06
2023-03-26T06:18:34.010Z,99819.38
2023-03-26T06:21:20.072Z,99806.84
2023-03-26T06:23:55.904Z,99798.53
2023-03-26T06:26:43.582Z,99827.09
2023-03-26T06:29:29.481Z,99800.69
2023-03-26T06:32:16.231Z,99822.38
2023-03-26T06:34:56.257Z,99806.31
2023-03-26T06:37:23.632Z,99812.56
2023-03-26T06:39:56.278Z,99771.56
2023-03-26T06:43:09.113Z,99814.16
2023-03-26T06:45:56.191Z,99798.63
2023-03-26T06:48:39.686Z,99775.41
2023-03-26T06:51:33.321Z,99802.47
2023-03-26T06:54:09.866Z,99803.59
2023-03-26T06:56:49.877Z,99812.06
2023-03-26T06:59:36.012Z,99780.66
2023-03-26T07:02:21.977Z,99793.22
2023-03-26T07:05:08.549Z,99787.72
2023-03-26T07:07:54.179Z,99782.69
2023-03-26T07:10:57.044Z,99764.44
2023-03-26T07:13:45.341Z,99790.66
2023-03-26T07:16:31.266Z,99757.84
2023-03-26T07:19:04.091Z,99788.31
2023-03-26T07:21:36.178Z,99765.13
2023-03-26T07:24:11.168Z,99788.28
2023-03-26T07:27:25.599Z,99760.97
2023-03-26T07:30:15.156Z,99755.81
2023-03-26T07:33:18.640Z,99779.34
2023-03-26T07:36:28.264Z,99771.47
2023-03-26T07:39:45.065Z,99758.56
2023-03-26T07:42:57.869Z,99767.09
2023-03-26T07:45:45.297Z,99754.53
2023-03-26T07:48:30.411Z,99773.34
2023-03-26T07:51:18.818Z,99760.72
2023-03-26T07:53:57.205Z,99754.13
2023-03-26T07:57:14.768Z,99747.03
2023-03-26T08:00:10.323Z,99724.34
2023-03-26T08:02:53.470Z,99747.53
2023-03-26T08:06:01.235Z,99726.22
2023-03-26T08:09:09.657Z,99738.91
2023-03-26T08:11:49.348Z,99736.22
2023-03-26T08:14:44.418Z,99727.66
2023-03-26T08:17:35.840Z,99739.00
2023-03-26T08:20:24.036Z,99721.31
2023-03-26T08:23:02.587Z,99711.69
2023-03-26T08:25:49.006Z,99730.41
2023-03-26T08:28:19.461Z,99741.84
2023-03-26T08:30:47.178Z,99713.97
2023-03-26T08:33:20.773Z,99720.47
2023-03-26T08:35:48.745Z,99705.97
2023-03-26T08:38:19.101Z,99728.44
2023-03-26T08:40:58.989Z,99729.78
2023-03-26T08:43:38.694Z,99736.88
2023-03-26T08:46:15.838Z,99726.81
2023-03-26T08:48:48.898Z,99731.06
2023-03-26T08:51:22.157Z,99735.38
2023-03-26T08:54:20.322Z,99732.59
2023-03-26T08:57:09.273Z,99742.19
2023-03-26T09:00:11.445Z,99734.22
2023-03-26T09:03:15.882Z,99724.34
2023-03-26T09:06:03.672Z,99741.47
2023-03-26T09:09:08.247Z,99733.78
2023-03-26T09:12:16.940Z,99737.66
2023-03-26T09:15:18.659Z,99697.41
2023-03-26T09:18:05.701Z,99731.06
2023-03-26T09:20:41.988Z,99740.53
2023-03-26T09:23:28.957Z,99723.22
2023-03-26T09:26:16.761Z,99721.06
2023-03-26T09:29:08.774Z,99729.75
2023-03-26T09:32:00.918Z,99732.00
2023-03-26T09:34:44.137Z,99719.13
2023-03-26T09:37:18.768Z,99704.31
2023-03-26T09:39:56.212Z,99699.94
2023-03-26T09:42:37.720Z,99702.34
2023-03-26T09:45:27.332Z,99701.28
2023-03-26T09:48:16.978Z,99682.06
2023-03-26T09:51:01.039Z,99690.59
2023-03-26T09:53:47.353Z,99694.88
2023-03-26T09:56:39.582Z,99665.72
2023-03-26T09:59:53.886Z,99682.94
2023-03-26T10:03:11.355Z,99681.31
2023-03-26T10:05:59.945Z,99681.25
2023-03-26T10:08:47.843Z,99675.06
2023-03-26T10:11:19.346Z,99669.47
2023-03-26T10:14:26.314Z,99667.91
2023-03-26T10:16:56.883Z,99669.47
2023-03-26T10:19:34.287Z,99662.03
2023-03-26T10:22:10.771Z,99653.34
2023-03-26T10:24:47.087Z,99669.59
2023-03-26T10:27:24.810Z,99668.38
2023-03-26T10:30:37.525Z,99660.00
2023-03-26T10:33:25.072Z,99666.84
2023-03-26T10:35:58.639Z,99665.81
2023-03-26T10:38:47.429Z,99661.16
2023-03-26T10:41:21.375Z,99664.66
2023-03-26T10:44:05.272Z,99659.44
2023-03-26T10:47:13.976Z,99652.31
2023-03-26T10:49:41.068Z,99670.59
2023-03-26T10:52:18.852Z,99662.09
2023-03-26T10:54:56.706Z,99649.09
2023-03-26T10:57:56.270Z,99646.13
2023-03-26T11:00:31.946Z,99669.09
2023-03-26T11:03:28.560Z,99666.81
2023-03-26T11:06:11.464Z,99647.25
2023-03-26T11:08:44.836Z,99665.34
2023-03-26T11:11:32.292Z,99646.75
2023-03-26T11:14:31.837Z,99659.00
2023-03-26T11:17:05.965Z,99649.00
2023-03-26T11:19:41.153Z,99654.81
2023-03-26T11:22:26.469Z,99636.97
2023-03-26T11:25:15.439Z,99652.72
2023-03-26T11:28:05.381Z,99662.53
2023-03-26T11:30:56.072Z,99663.38
2023-03-26T11:34:36.908Z,99626.88
2023-03-26T11:36:23.310Z,99661.19
2023-03-26T11:38:51.641Z,99633.72
2023-03-26T11:41:28.113Z,99631.66
2023-03-26T11:44:19.604Z,99650.28
2023-03-26T11:46:52.344Z,99656.13
2023-03-26T11:49:22.309Z,99636.94
2023-03-26T11:51:49.926Z,99632.75
2023-03-26T11:54:18.276Z,99616.75
2023-03-26T11:57:05.709Z,99638.28
2023-03-26T11:59:55.653Z,99644.84
2023-03-26T12:02:38.069Z,99633.47
2023-03-26T12:05:29.683Z,99647.22
2023-03-26T12:08:02.405Z,99627.00
2023-03-26T12:10:38.820Z,99624.53
2023-03-26T12:13:39.289Z,99640.88
2023-03-26T12:16:15.518Z,99630.53
2023-03-26T12:18:44.826Z,99611.25
2023-03-26T12:21:19.900Z,99613.34
2023-03-26T12:23:58.978Z,99640.63
2023-03-26T12:26:34.096Z,99635.75
2023-03-26T12:29:11.918Z,99593.38
2023-03-26T12:31:51.261Z,99641.25
2023-03-26T12:34:29.788Z,99636.25
2023-03-26T12:37:01.713Z,99638.84
2023-03-26T12:40:09.016Z,99643.22
2023-03-26T12:44:44.588Z,99622.78
2023-03-26T12:45:28.261Z,99633.25
2023-03-26T12:48:03.772Z,99640.56
2023-03-26T12:50:42.865Z,99659.47
2023-03-26T12:53:32.215Z,99662.47
2023-03-26T12:56:06.116Z,99647.91
2023-03-26T12:58:55.338Z,99648.78
2023-03-26T13:01:35.349Z,99647.25
2023-03-26T13:04:18.443Z,99641.69
2023-03-26T13:07:01.788Z,99640.38
2023-03-26T13:09:32.957Z,99650.88
2023-03-26T13:12:38.340Z,99648.88
2023-03-26T13:15:18.032Z,99633.41
2023-03-26T13:18:04.532Z,99648.25
2023-03-26T13:20:53.942Z,99641.78
2023-03-26T13:23:38.957Z,99634.75
2023-03-26T13:26:51.210Z,99649.13
2023-03-26T13:29:37.037Z,99638.03
2023-03-26T13:32:37.669Z,99629.38
2023-03-26T13:35:14.722Z,99640.22
2023-03-26T13:37:47.156Z,99622.84
2023-03-26T13:40:40.697Z,99628.56
2023-03-26T13:43:23.003Z,99616.69
2023-03-26T13:46:08.743Z,99625.38
2023-03-26T13:48:53.957Z,99629.28
2023-03-26T13:51:45.000Z,99641.22
2023-03-26T13:54:26.693Z,99628.94
2023-03-26T13:57:20.590Z,99630.25
2023-03-26T14:00:13.577Z,99595.19
2023-03-26T14:02:44.039Z,99597.19
2023-03-26T14:05:36.258Z,99603.63
2023-03-26T14:08:32.651Z,99604.28
2023-03-26T14:11:11.115Z,99616.97
2023-03-26T14:13:54.444Z,99607.16
2023-03-26T14:16:34.596Z,99624.59
2023-03-26T14:19:39.684Z,99623.41
2023-03-26T14:22:39.604Z,99629.91
2023-03-26T14:25:24.800Z,99629.34
2023-03-26T14:27:52.368Z,99641.81
2023-03-26T14:30:48.437Z,99618.25
2023-03-26T14:33:56.016Z,99633.03
2023-03-26T14:36:46.958Z,99611.88
2023-03-26T14:39:14.058Z,99624.44
2023-03-26T14:41:50.741Z,99633.03
2023-03-26T14:44:47.894Z,99633.94
2023-03-26T14:47:21.839Z,99648.63
2023-03-26T14:50:11.008Z,99654.69
2023-03-26T14:52:52.352Z,99653.75
2023-03-26T14:55:48.687Z,99652.44
2023-03-26T14:58:50.950Z,99626.69
2023-03-26T15:01:24.710Z,99631.19
2023-03-26T15:04:31.745Z,99629.38
2023-03-26T15:07:32.870Z,99659.00
2023-03-26T15:10:24.765Z,99664.41
2023-03-26T15:13:05.502Z,99627.47
2023-03-26T15:16:03.804Z,99665.72
2023-03-26T15:18:33.776Z,99659.88
2023-03-26T15:21:43.571Z,99663.63
2023-03-26T15:24:19.946Z,99639.66
2023-03-26T15:26:56.954Z,99667.03
2023-03-26T15:29:54.739Z,99661.63
2023-03-26T15:32:41.154Z,99654.00
2023-03-26T15:35:32.232Z,99645.56
2023-03-26T15:38:30.399Z,99655.66
2023-03-26T15:41:17.649Z,99664.91
2023-03-26T15:44:23.924Z,99664.63
2023-03-26T15:47:17.147Z,99673.22
2023-03-26T15:50:19.793Z,99657.09
2023-03-26T15:53:07.718Z,99665.25
2023-03-26T15:56:20.097Z,99674.19
2023-03-26T15:58:56.729Z,99675.56
2023-03-26T16:02:14.200Z,99663.00
2023-03-26T16:05:03.351Z,99660.22
2023-03-26T16:08:04.549Z,99676.22
2023-03-26T16:10:46.046Z,99676.56
2023-03-26T16:13:42.863Z,99681.53
2023-03-26T16:16:50.014Z,99694.03
2023-03-26T16:19:20.844Z,99691.50
2023-03-26T16:22:06.425Z,99693.56
2023-03-26T16:24:40.081Z,99696.16
2023-03-26T16:27:28.288Z,99677.25
2023-03-26T16:30:01.856Z,99711.72
2023-03-26T16:32:34.815Z,99705.88
2023-03-26T16:35:22.934Z,99672.88
2023-03-26T16:38:05.165Z,99692.97
2023-03-26T16:40:36.796Z,99695.31
2023-03-26T16:43:40.388Z,99688.69
2023-03-26T16:46:14.103Z,99695.31
2023-03-26T16:49:35.053Z,99714.19
2023-03-26T16:52:24.008Z,99715.13
2023-03-26T16:55:07.582Z,99706.44
2023-03-26T16:57:48.355Z,99720.41
2023-03-26T17:00:23.648Z,99713.31
2023-03-26T17:03:14.498Z,99712.72
2023-03-26T17:05:57.107Z,99708.34
2023-03-26T17:09:23.617Z,99678.56
2023-03-26T17:12:07.859Z,99691.56
2023-03-26T17:15:09.034Z,99723.28
2023-03-26T17:17:49.373Z,99718.16
2023-03-26T17:20:26.472Z,99707.25
2023-03-26T17:23:38.435Z,99709.03
2023-03-26T17:26:30.383Z,99678.25
2023-03-26T17:29:07.707Z,99686.13
2023-03-26T17:31:38.456Z,99685.72
2023-03-26T17:34:47.010Z,99703.06
2023-03-26T17:37:17.388Z,99700.22
2023-03-26T17:39:46.432Z,99669.41
2023-03-26T17:42:33.047Z,99684.56
2023-03-26T17:45:02.597Z,99673.84
2023-03-26T17:47:50.357Z,99678.59
2023-03-26T17:50:30.954Z,99686.94
2023-03-26T17:53:02.310Z,99679.13
2023-03-26T17:55:37.378Z,99678.56
2023-03-26T17:58:06.437Z,99678.94
2023-03-26T18:00:43.387Z,99657.28
2023-03-26T18:03:34.418Z,99652.97
2023-03-26T18:06:26.761Z,99656.78
2023-03-26T18:09:34.196Z,99667.16
2023-03-26T18:12:32.266Z,99617.19
2023-03-26T18:15:15.808Z,99668.19
2023-03-26T18:17:46.691Z,99635.34
2023-03-26T18:20:28.468Z,99663.63
2023-03-26T18:22:56.301Z,99651.66
2023-03-26T18:25:36.949Z,99660.69
2023-03-26T18:28:06.231Z,99664.31
2023-03-26T18:30:47.079Z,99651.78
2023-03-26T18:33:15.985Z,99637.38
2023-03-26T18:35:50.326Z,99629.03
2023-03-26T18:38:35.067Z,99620.78
2023-03-26T18:41:06.060Z,99628.16
2023-03-26T18:43:35.645Z,99642.47
2023-03-26T18:46:14.822Z,99650.50
2023-03-26T18:48:43.370Z,99621.91
2023-03-26T18:51:11.203Z,99614.34
2023-03-26T18:53:44.978Z,99631.78
2023-03-26T18:56:20.415Z,99640.81
2023-03-26T18:58:52.109Z,99625.97
2023-03-26T19:01:25.934Z,99607.91
2023-03-26T19:03:54.688Z,99616.44
2023-03-26T19:06:23.490Z,99611.34
2023-03-26T19:08:51.136Z,99611.19
2023-03-26T19:11:19.081Z,99614.75
2023-03-26T19:13:58.962Z,99619.34
2023-03-26T19:16:33.781Z,99599.25
2023-03-26T19:19:05.477Z,99609.44
2023-03-26T19:21:34.741Z,99602.19
2023-03-26T19:24:03.942Z,99611.88
2023-03-26T19:26:31.974Z,99621.75
2023-03-26T19:29:00.897Z,99597.25
2023-03-26T19:31:39.806Z,99593.97
2023-03-26T19:34:17.576Z,99621.91
2023-03-26T19:36:57.511Z,99594.97
2023-03-26T19:39:38.620Z,99614.22
2023-03-26T19:42:07.662Z,99597.94
2023-03-26T19:44:39.652Z,99598.94
2023-03-26T19:47:16.771Z,99599.63
2023-03-26T19:50:04.090Z,99566.13
2023-03-26T19:52:38.586Z,99572.06
2023-03-26T19:55:29.624Z,99570.25
2023-03-26T19:57:56.774Z,99569.28
2023-03-26T20:00:24.016Z,99537.56
2023-03-26T20:02:51.513Z,99529.50
2023-03-26T20:05:27.356Z,99567.78
2023-03-26T20:08:13.326Z,99543.94
2023-03-26T20:10:40.679Z,99535.22
2023-03-26T20:13:17.876Z,99535.41
2023-03-26T20:16:05.351Z,99544.91
2023-03-26T20:18:34.879Z,99561.31
2023-03-26T20:21:02.741Z,99556.22
2023-03-26T20:23:29.851Z,99550.31
2023-03-26T20:25:57.421Z,99560.00
2023-03-26T20:28:24.747Z,99551.06
2023-03-26T20:30:54.570Z,99538.59
2023-03-26T20:33:25.779Z,99561.44
2023-03-26T20:35:55.378Z,99551.13
2023-03-26T20:38:39.096Z,99540.44
2023-03-26T20:41:22.990Z,99521.38
2023-03-26T20:43:52.272Z,99532.22
2023-03-26T20:46:31.621Z,99555.72
2023-03-26T20:48:59.948Z,99546.38
2023-03-26T20:51:28.990Z,99551.13
2023-03-26T20:53:56.637Z,99532.75
2023-03-26T20:56:24.083Z,99537.50
2023-03-26T20:59:09.685Z,99513.69
2023-03-26T21:01:38.699Z,99539.22
2023-03-26T21:04:07.191Z,99526.59
2023-03-26T21:06:34.298Z,99536.16
2023-03-26T21:09:01.956Z,99534.06
2023-03-26T21:11:31.998Z,99548.34
2023-03-26T21:14:09.590Z,99539.34
2023-03-26T21:16:37.574Z,99503.72
2023-03-26T21:19:05.883Z,99495.34
2023-03-26T21:21:59.129Z,99517.66
2023-03-26T21:24:45.960Z,99530.97
2023-03-26T21:27:19.905Z,99524.88
2023-03-26T21:29:47.857Z,99514.38
2023-03-26T21:32:16.898Z,99521.75
2023-03-26T21:34:55.730Z,99524.34
2023-03-26T21:37:26.836Z,99508.19
2023-03-26T21:39:54.230Z,99516.03
2023-03-26T21:42:21.595Z,99527.56
2023-03-26T21:44:49.111Z,99520.59
2023-03-26T21:47:17.607Z,99539.13
2023-03-26T21:49:45.942Z,99531.16
2023-03-26T21:52:15.314Z,99538.88
2023-03-26T21:54:43.444Z,99554.00
2023-03-26T21:57:29.325Z,99515.50
2023-03-26T22:00:15.178Z,99549.31
2023-03-26T22:03:06.975Z,99541.41
2023-03-26T22:05:36.999Z,99541.91
2023-03-26T22:08:06.355Z,99537.50
2023-03-26T22:10:33.627Z,99521.13
2023-03-26T22:13:00.795Z,99535.06
2023-03-26T22:15:31.292Z,99506.72
2023-03-26T22:18:03.861Z,99504.91
2023-03-26T22:20:31.235Z,99544.47
2023-03-26T22:22:59.285Z,99531.00
2023-03-26T22:25:28.016Z,99551.94
2023-03-26T22:27:55.733Z,99529.66
2023-03-26T22:30:23.035Z,99537.44
2023-03-26T22:32:50.465Z,99531.94
2023-03-26T22:35:17.986Z,99524.31
2023-03-26T22:37:45.462Z,99528.66
2023-03-26T22:40:13.931Z,99534.44
2023-03-26T22:42:42.045Z,99542.81
2023-03-26T22:45:12.195Z,99545.84
2023-03-26T22:47:40.308Z,99537.91
2023-03-26T22:50:08.986Z,99539.16
2023-03-26T22:52:37.035Z,99515.81
2023-03-26T22:55:05.479Z,99531.38
2023-03-26T22:57:32.610Z,99525.13
2023-03-26T23:00:12.417Z,99510.63
2023-03-26T23:02:41.239Z,99540.31
2023-03-26T23:05:08.759Z,99518.63
2023-03-26T23:07:35.838Z,99526.63
2023-03-26T23:10:05.048Z,99537.59
2023-03-26T23:12:32.412Z,99520.22
2023-03-26T23:14:59.530Z,99511.59
2023-03-26T23:17:27.381Z,99525.75
2023-03-26T23:19:55.167Z,99496.84
2023-03-26T23:22:22.446Z,99531.00
2023-03-26T23:24:49.643Z,99514.19
2023-03-26T23:27:16.722Z,99503.06
2023-03-26T23:29:49.834Z,99498.75
2023-03-26T23:32:24.078Z,99520.72
2023-03-26T23:34:52.714Z,99521.91
2023-03-26T23:37:23.464Z,99514.91
2023-03-26T23:39:53.974Z,99499.94
2023-03-26T23:42:28.618Z,99512.91
2023-03-26T23:44:57.924Z,99512.81
2023-03-26T23:47:25.378Z,99501.66
2023-03-26T23:49:52.576Z,99518.38
2023-03-26T23:52:20.153Z,99508.34
2023-03-26T23:54:47.675Z,99494.94
2023-03-26T23:57:14.976Z,99506.88
2023-03-26T23:59:42.099Z,99501.00
